createdAt,value
2022-09-25T00:02:00.175Z,10.34
2022-09-25T00:07:03.656Z,10.33
2022-09-25T00:12:07.996Z,10.30
2022-09-25T00:17:10.917Z,10.25
2022-09-25T00:22:13.905Z,10.19
2022-09-25T00:27:19.380Z,10.17
2022-09-25T00:32:22.552Z,10.16
2022-09-25T00:37:25.859Z,10.10
2022-09-25T00:42:30.980Z,10.08
2022-09-25T00:47:49.691Z,10.05
2022-09-25T00:52:54.620Z,10.03
2022-09-25T00:58:00.653Z,10.00
2022-09-25T01:03:05.200Z,9.99
2022-09-25T01:08:11.843Z,9.97
2022-09-25T01:13:17.860Z,9.92
2022-09-25T01:18:35.688Z,9.88
2022-09-25T01:24:07.141Z,9.89
2022-09-25T01:29:15.726Z,9.87
2022-09-25T01:34:27.587Z,9.78
2022-09-25T01:39:33.941Z,9.72
2022-09-25T01:44:41.318Z,9.70
2022-09-25T01:49:49.355Z,9.67
2022-09-25T01:54:56.359Z,9.62
2022-09-25T02:00:05.799Z,9.58
2022-09-25T02:05:19.745Z,9.57
2022-09-25T02:10:27.743Z,9.62
2022-09-25T02:15:35.858Z,9.59
2022-09-25T02:20:42.510Z,9.54
2022-09-25T02:25:50.459Z,9.48
2022-09-25T02:30:57.513Z,9.43
2022-09-25T02:36:02.805Z,9.41
2022-09-25T02:41:15.534Z,9.37
2022-09-25T02:46:28.768Z,9.31
2022-09-25T02:51:37.850Z,9.38
2022-09-25T02:56:45.959Z,9.36
2022-09-25T03:01:51.287Z,9.34
2022-09-25T03:06:54.895Z,9.33
2022-09-25T03:11:57.752Z,9.42
2022-09-25T03:17:04.860Z,9.39
2022-09-25T03:22:07.817Z,9.36
2022-09-25T03:27:10.741Z,9.31
2022-09-25T03:32:15.079Z,9.30
2022-09-25T03:37:18.012Z,9.29
2022-09-25T03:42:20.968Z,9.29
2022-09-25T03:47:25.293Z,9.28
2022-09-25T03:52:28.308Z,9.27
2022-09-25T03:57:31.754Z,9.26
2022-09-25T04:02:36.155Z,9.28
2022-09-25T04:07:39.229Z,9.31
2022-09-25T04:12:43.833Z,9.36
2022-09-25T04:17:48.034Z,9.40
2022-09-25T04:22:50.948Z,9.41
2022-09-25T04:27:55.456Z,9.41
2022-09-25T04:33:16.980Z,9.40
2022-09-25T04:38:19.940Z,9.39
2022-09-25T04:43:23.045Z,9.35
2022-09-25T04:48:27.432Z,9.34
2022-09-25T04:53:31.909Z,9.31
2022-09-25T04:58:34.976Z,9.30
2022-09-25T05:03:39.202Z,9.28
2022-09-25T05:08:42.054Z,9.23
2022-09-25T05:13:46.857Z,9.24
2022-09-25T05:18:51.373Z,9.14
2022-09-25T05:23:54.322Z,9.07
2022-09-25T05:28:57.860Z,9.05
2022-09-25T05:34:02.406Z,8.95
2022-09-25T05:39:05.492Z,8.91
2022-09-25T05:44:09.880Z,8.94
2022-09-25T05:49:14.231Z,8.92
2022-09-25T06:00:38.852Z,8.88
2022-09-25T06:05:46.214Z,8.91
2022-09-25T06:10:54.903Z,8.90
2022-09-25T06:15:57.851Z,8.95
2022-09-25T06:21:04.309Z,9.03
2022-09-25T06:26:09.405Z,9.08
2022-09-25T06:31:12.344Z,9.15
2022-09-25T06:36:16.683Z,9.17
2022-09-25T06:41:20.034Z,9.30
2022-09-25T06:46:23.605Z,9.38
2022-09-25T06:51:28.927Z,9.50
2022-09-25T06:56:31.978Z,9.59
2022-09-25T07:01:34.928Z,9.82
2022-09-25T07:06:39.237Z,10.05
2022-09-25T07:11:44.145Z,10.36
2022-09-25T07:16:47.086Z,10.62
2022-09-25T07:21:51.405Z,10.90
2022-09-25T07:26:54.388Z,11.17
2022-09-25T07:31:57.494Z,11.39
2022-09-25T07:37:02.077Z,11.53
2022-09-25T07:42:05.202Z,11.57
2022-09-25T07:47:08.997Z,11.57
2022-09-25T07:52:13.628Z,11.58
2022-09-25T07:57:20.582Z,11.60
2022-09-25T08:02:23.631Z,11.66
2022-09-25T08:07:28.823Z,11.75
2022-09-25T08:12:32.040Z,11.90
2022-09-25T08:17:35.027Z,11.98
2022-09-25T08:22:39.364Z,12.02
2022-09-25T08:27:43.429Z,12.11
2022-09-25T08:32:46.647Z,12.24
2022-09-25T08:37:51.141Z,12.44
2022-09-25T08:42:55.908Z,12.73
2022-09-25T08:48:17.468Z,12.98
2022-09-25T08:53:26.219Z,13.05
2022-09-25T08:58:32.395Z,13.45
2022-09-25T09:03:48.142Z,13.71
2022-09-25T09:08:58.987Z,14.20
2022-09-25T09:14:04.777Z,14.83
2022-09-25T09:19:10.631Z,15.40
2022-09-25T09:24:18.819Z,15.66
2022-09-25T09:29:34.855Z,15.88
2022-09-25T09:35:12.774Z,15.93
2022-09-25T09:40:30.862Z,16.09
2022-09-25T09:45:42.178Z,16.09
2022-09-25T09:50:53.003Z,16.16
2022-09-25T09:56:02.606Z,16.33
2022-09-25T10:01:16.246Z,16.30
2022-09-25T10:06:32.051Z,16.40
2022-09-25T10:11:37.544Z,16.26
2022-09-25T10:16:40.736Z,16.11
2022-09-25T10:21:49.031Z,16.11
2022-09-25T10:26:53.407Z,16.38
2022-09-25T10:32:01.023Z,16.71
2022-09-25T10:37:20.475Z,17.06
2022-09-25T10:42:39.508Z,17.70
2022-09-25T10:48:01.949Z,17.79
2022-09-25T10:53:07.711Z,17.38
2022-09-25T10:58:20.735Z,17.21
2022-09-25T11:03:26.538Z,17.52
2022-09-25T11:08:36.383Z,17.99
2022-09-25T11:13:47.642Z,18.27
2022-09-25T11:18:52.369Z,18.23
2022-09-25T11:24:14.757Z,18.03
2022-09-25T11:29:29.464Z,17.94
2022-09-25T11:34:57.751Z,17.91
2022-09-25T11:40:32.246Z,18.21
2022-09-25T11:45:44.387Z,18.65
2022-09-25T11:50:54.528Z,19.04
2022-09-25T11:56:06.974Z,19.23
2022-09-25T12:01:22.845Z,18.63
2022-09-25T12:06:49.207Z,18.61
2022-09-25T12:12:03.203Z,18.76
2022-09-25T12:17:14.973Z,18.91
2022-09-25T12:22:28.993Z,19.23
2022-09-25T12:27:46.446Z,19.30
2022-09-25T12:33:17.774Z,19.16
2022-09-25T12:38:30.226Z,18.88
2022-09-25T12:43:41.314Z,18.78
2022-09-25T12:48:51.457Z,19.06
2022-09-25T12:53:59.640Z,19.40
2022-09-25T12:59:10.967Z,20.06
2022-09-25T13:04:38.486Z,20.25
2022-09-25T13:09:45.096Z,20.19
2022-09-25T13:14:54.241Z,19.69
2022-09-25T13:20:45.044Z,19.58
2022-09-25T13:25:53.764Z,19.64
2022-09-25T13:31:09.225Z,19.32
2022-09-25T13:36:28.658Z,18.99
2022-09-25T13:41:32.724Z,18.69
2022-09-25T13:46:37.600Z,18.21
2022-09-25T13:51:46.129Z,17.81
2022-09-25T13:56:50.769Z,17.48
2022-09-25T14:01:56.731Z,17.26
2022-09-25T14:07:12.955Z,17.06
2022-09-25T14:12:25.678Z,16.80
2022-09-25T14:17:32.513Z,16.53
2022-09-25T14:22:44.556Z,16.46
2022-09-25T14:27:52.507Z,16.21
2022-09-25T14:33:13.700Z,15.55
2022-09-25T14:39:01.368Z,15.26
2022-09-25T14:44:24.118Z,15.38
2022-09-25T14:49:30.302Z,15.78
2022-09-25T14:54:39.320Z,16.49
2022-09-25T14:59:47.132Z,17.19
2022-09-25T15:04:51.221Z,17.27
2022-09-25T15:09:57.788Z,17.72
2022-09-25T15:15:08.153Z,18.00
2022-09-25T15:20:16.636Z,18.11
2022-09-25T15:25:26.303Z,18.13
2022-09-25T15:30:29.879Z,18.30
2022-09-25T15:35:33.429Z,18.50
2022-09-25T15:40:38.374Z,18.58
2022-09-25T15:45:45.740Z,18.39
2022-09-25T15:50:49.821Z,18.13
2022-09-25T15:56:04.249Z,17.97
2022-09-25T16:01:24.631Z,17.89
2022-09-25T16:06:30.340Z,18.00
2022-09-25T16:11:34.628Z,17.65
2022-09-25T16:16:47.468Z,17.29
2022-09-25T16:21:50.794Z,17.13
2022-09-25T16:26:57.978Z,17.07
2022-09-25T16:32:04.814Z,17.01
2022-09-25T16:37:19.912Z,16.97
2022-09-25T16:42:35.712Z,16.91
2022-09-25T16:47:38.756Z,16.81
2022-09-25T16:52:43.303Z,16.68
2022-09-25T16:57:47.720Z,16.50
2022-09-25T17:02:51.058Z,16.31
2022-09-25T17:07:55.987Z,16.20
2022-09-25T17:13:02.639Z,16.15
2022-09-25T17:18:13.106Z,16.13
2022-09-25T17:23:18.139Z,16.04
2022-09-25T17:28:22.555Z,15.89
2022-09-25T17:33:25.500Z,15.78
2022-09-25T17:38:28.472Z,15.68
2022-09-25T17:43:32.857Z,15.48
2022-09-25T17:48:35.843Z,15.37
2022-09-25T17:53:39.079Z,15.30
2022-09-25T17:58:44.563Z,15.21
2022-09-25T18:03:47.759Z,15.10
2022-09-25T18:08:51.362Z,14.95
2022-09-25T18:13:57.010Z,14.79
2022-09-25T18:19:17.305Z,14.77
2022-09-25T18:24:20.340Z,14.75
2022-09-25T18:29:24.723Z,14.72
2022-09-25T18:34:29.675Z,14.69
2022-09-25T18:39:32.667Z,14.71
2022-09-25T18:44:42.327Z,14.67
2022-09-25T18:49:45.987Z,14.58
2022-09-25T18:54:49.121Z,14.49
2022-09-25T18:59:53.950Z,14.44
2022-09-25T19:04:58.442Z,14.41
2022-09-25T19:10:07.695Z,14.45
2022-09-25T19:15:13.570Z,14.46
2022-09-25T19:20:17.773Z,14.41
2022-09-25T19:25:22.601Z,14.30
2022-09-25T19:30:27.218Z,14.16
2022-09-25T19:35:30.429Z,14.09
2022-09-25T19:40:41.850Z,14.02
2022-09-25T19:45:51.455Z,13.87
2022-09-25T19:50:54.403Z,13.77
2022-09-25T19:55:57.464Z,13.65
2022-09-25T20:01:02.232Z,13.61
2022-09-25T20:06:05.696Z,13.48
2022-09-25T20:11:14.435Z,13.39
2022-09-25T20:16:20.711Z,13.31
2022-09-25T20:21:24.072Z,13.24
2022-09-25T20:26:28.025Z,13.20
2022-09-25T20:31:34.375Z,13.16
2022-09-25T20:36:39.177Z,13.10
2022-09-25T20:41:42.152Z,13.13
2022-09-25T20:46:46.584Z,13.05
2022-09-25T20:51:49.513Z,13.00
2022-09-25T20:56:52.758Z,13.00
2022-09-25T21:01:58.087Z,13.06
2022-09-25T21:07:01.776Z,13.09
2022-09-25T21:12:05.918Z,13.07
2022-09-25T21:17:11.105Z,13.12
2022-09-25T21:22:14.106Z,13.13
2022-09-25T21:27:17.017Z,13.14
2022-09-25T21:32:21.407Z,13.06
2022-09-25T21:37:24.319Z,13.11
2022-09-25T21:42:29.632Z,13.10
2022-09-25T21:47:34.604Z,13.10
2022-09-25T21:52:40.915Z,13.09
2022-09-25T21:57:44.076Z,13.11
2022-09-25T22:02:50.361Z,13.09
2022-09-25T22:07:53.574Z,13.10
2022-09-25T22:12:57.400Z,13.09
2022-09-25T22:18:01.853Z,13.10
2022-09-25T22:23:04.889Z,13.01
2022-09-25T22:28:07.984Z,13.00
2022-09-25T22:33:12.226Z,12.94
2022-09-25T22:38:15.230Z,12.90
2022-09-25T22:43:18.117Z,12.88
2022-09-25T22:48:22.613Z,12.87
2022-09-25T22:53:26.933Z,12.84
2022-09-25T22:58:29.863Z,12.83
2022-09-25T23:03:34.141Z,12.71
2022-09-25T23:08:37.301Z,12.81
2022-09-25T23:13:40.179Z,12.78
2022-09-25T23:18:44.626Z,12.80
2022-09-25T23:23:47.630Z,12.78
2022-09-25T23:28:50.726Z,12.79
2022-09-25T23:33:56.021Z,12.78
2022-09-25T23:39:00.765Z,12.78
2022-09-25T23:44:05.743Z,12.78
2022-09-25T23:49:11.173Z,12.71
2022-09-25T23:54:14.115Z,12.79
2022-09-25T23:59:17.177Z,12.80
